createdAt,value
2019-03-05T00:00:52.904Z,98181.66
2019-03-05T00:03:27.622Z,98180.51
2019-03-05T00:06:02.737Z,98184.33
2019-03-05T00:08:37.183Z,98186.31
2019-03-05T00:11:11.675Z,98187.45
2019-03-05T00:13:46.235Z,98189.78
2019-03-05T00:16:20.845Z,98192.64
2019-03-05T00:18:55.333Z,98191.64
2019-03-05T00:21:30.120Z,98202.17
2019-03-05T00:25:06.797Z,98202.95
2019-03-05T00:28:21.851Z,98199.40
2019-03-05T00:31:14.167Z,98184.25
2019-03-05T00:34:51.844Z,98191.14
2019-03-05T00:38:15.159Z,98193.81
2019-03-05T00:41:17.565Z,98197.19
2019-03-05T00:44:20.713Z,98197.64
2019-03-05T00:47:46.527Z,98197.64
2019-03-05T00:51:55.008Z,98219.30
2019-03-05T00:55:56.308Z,98219.30
2019-03-05T00:59:11.830Z,98228.86
2019-03-05T01:02:49.669Z,98235.44
2019-03-05T01:06:17.520Z,98235.97
2019-03-05T01:08:54.549Z,98229.02
2019-03-05T01:11:29.261Z,98225.43
2019-03-05T01:14:04.674Z,98225.43
2019-03-05T01:16:39.106Z,98223.97
2019-03-05T01:19:14.316Z,98230.34
2019-03-05T01:21:49.064Z,98225.05
2019-03-05T01:26:32.050Z,98221.44
2019-03-05T01:29:06.822Z,98221.59
2019-03-05T01:32:07.692Z,98234.91
2019-03-05T01:34:50.321Z,98238.19
2019-03-05T01:37:25.313Z,98247.11
2019-03-05T01:40:19.542Z,98240.41
2019-03-05T01:42:53.878Z,98242.77
2019-03-05T01:45:28.515Z,98237.98
2019-03-05T01:48:03.153Z,98235.13
2019-03-05T01:50:37.806Z,98224.42
2019-03-05T01:53:12.679Z,98219.16
2019-03-05T01:55:47.124Z,98219.88
2019-03-05T01:58:21.568Z,98227.47
2019-03-05T02:00:56.158Z,98223.20
2019-03-05T02:03:30.632Z,98223.20
2019-03-05T02:06:05.043Z,98238.11
2019-03-05T02:08:40.192Z,98238.11
2019-03-05T02:11:16.569Z,98244.90
2019-03-05T02:13:51.178Z,98230.02
2019-03-05T02:16:26.068Z,98230.02
2019-03-05T02:19:49.317Z,98220.14
2019-03-05T02:23:09.819Z,98227.80
2019-03-05T02:26:29.588Z,98219.03
2019-03-05T02:29:58.298Z,98212.98
2019-03-05T02:34:00.855Z,98212.98
2019-03-05T02:37:59.547Z,98207.14
2019-03-05T02:41:15.925Z,98198.00
2019-03-05T02:44:45.796Z,98198.00
2019-03-05T02:48:25.798Z,98203.59
2019-03-05T02:51:41.005Z,98207.78
2019-03-05T02:55:19.691Z,98191.28
2019-03-05T02:57:51.705Z,98196.93
2019-03-05T03:00:51.604Z,98186.25
2019-03-05T03:03:34.135Z,98181.31
2019-03-05T03:06:20.991Z,98180.63
2019-03-05T03:10:19.525Z,98181.69
2019-03-05T03:12:54.584Z,98188.14
2019-03-05T03:15:28.643Z,98188.14
2019-03-05T03:18:03.324Z,98177.30
2019-03-05T03:20:37.852Z,98177.30
2019-03-05T03:23:12.329Z,98176.78
2019-03-05T03:25:47.023Z,98176.47
2019-03-05T03:28:21.944Z,98181.10
2019-03-05T03:30:56.669Z,98181.69
2019-03-05T03:33:32.316Z,98184.59
2019-03-05T03:36:06.866Z,98184.59
2019-03-05T03:38:42.818Z,98200.91
2019-03-05T03:41:17.321Z,98202.76
2019-03-05T03:43:51.834Z,98206.64
2019-03-05T03:46:26.582Z,98196.94
2019-03-05T03:49:00.530Z,98204.09
2019-03-05T03:51:41.608Z,98201.35
2019-03-05T03:54:16.494Z,98201.35
2019-03-05T03:56:51.033Z,98186.39
2019-03-05T03:59:25.676Z,98186.39
2019-03-05T04:02:00.455Z,98198.30
2019-03-05T04:04:34.822Z,98183.89
2019-03-05T04:07:09.525Z,98186.16
2019-03-05T04:09:44.126Z,98180.64
2019-03-05T04:12:20.101Z,98188.34
2019-03-05T04:14:55.029Z,98197.85
2019-03-05T04:17:30.603Z,98198.62
2019-03-05T04:20:06.662Z,98194.33
2019-03-05T04:22:40.593Z,98194.33
2019-03-05T04:25:15.516Z,98207.84
2019-03-05T04:27:51.326Z,98208.95
2019-03-05T04:30:26.454Z,98208.95
2019-03-05T04:33:01.120Z,98207.27
2019-03-05T04:35:35.813Z,98193.98
2019-03-05T04:38:10.833Z,98196.80
2019-03-05T04:40:45.444Z,98195.11
2019-03-05T04:43:20.338Z,98198.44
2019-03-05T04:46:05.480Z,98196.09
2019-03-05T04:48:40.978Z,98197.39
2019-03-05T04:51:23.539Z,98199.68
2019-03-05T04:53:58.458Z,98194.75
2019-03-05T04:56:33.105Z,98191.34
2019-03-05T04:59:07.588Z,98191.34
2019-03-05T05:01:42.069Z,98190.25
2019-03-05T05:04:17.218Z,98190.25
2019-03-05T05:06:51.624Z,98190.20
2019-03-05T05:09:26.597Z,98204.20
2019-03-05T05:12:01.347Z,98201.97
2019-03-05T05:14:36.012Z,98198.45
2019-03-05T05:17:10.758Z,98201.88
2019-03-05T05:19:45.570Z,98209.98
2019-03-05T05:22:19.483Z,98211.71
2019-03-05T05:24:54.062Z,98223.55
2019-03-05T05:27:29.537Z,98223.55
2019-03-05T05:30:04.743Z,98228.50
2019-03-05T05:32:39.537Z,98228.50
2019-03-05T05:35:14.317Z,98220.95
2019-03-05T05:37:51.972Z,98227.02
2019-03-05T05:40:30.557Z,98224.91
2019-03-05T05:43:08.318Z,98214.83
2019-03-05T05:45:49.321Z,98214.83
2019-03-05T05:48:23.826Z,98213.00
2019-03-05T05:50:58.551Z,98205.90
2019-03-05T05:53:33.868Z,98212.91
2019-03-05T05:56:08.664Z,98212.91
2019-03-05T05:58:43.074Z,98213.55
2019-03-05T06:01:17.812Z,98210.20
2019-03-05T06:03:52.455Z,98211.67
2019-03-05T06:06:27.156Z,98202.47
2019-03-05T06:09:01.653Z,98202.47
2019-03-05T06:11:38.715Z,98196.23
2019-03-05T06:14:13.568Z,98196.23
2019-03-05T06:16:48.322Z,98233.28
2019-03-05T06:19:23.069Z,98233.28
2019-03-05T06:21:57.852Z,98230.06
2019-03-05T06:24:33.014Z,98232.30
2019-03-05T06:27:07.613Z,98225.28
2019-03-05T06:29:41.793Z,98229.08
2019-03-05T06:32:17.479Z,98219.55
2019-03-05T06:34:52.516Z,98216.34
2019-03-05T06:37:27.299Z,98222.94
2019-03-05T06:40:02.520Z,98221.01
2019-03-05T06:42:37.836Z,98224.49
2019-03-05T06:45:16.336Z,98224.49
2019-03-05T06:47:51.121Z,98216.77
2019-03-05T06:50:26.610Z,98229.17
2019-03-05T06:53:00.462Z,98237.23
2019-03-05T06:55:35.160Z,98241.27
2019-03-05T06:58:11.686Z,98241.27
2019-03-05T07:00:45.511Z,98242.61
2019-03-05T07:03:19.949Z,98245.27
2019-03-05T07:07:06.761Z,98257.73
2019-03-05T07:10:28.135Z,98257.73
2019-03-05T07:13:10.079Z,98268.51
2019-03-05T07:16:43.543Z,98277.69
2019-03-05T07:20:23.390Z,98290.88
2019-03-05T07:24:11.601Z,98290.88
2019-03-05T07:26:46.324Z,98294.91
2019-03-05T07:29:21.052Z,98290.05
2019-03-05T07:31:55.656Z,98301.58
2019-03-05T07:34:30.924Z,98295.89
2019-03-05T07:37:09.308Z,98297.27
2019-03-05T07:39:44.478Z,98296.02
2019-03-05T07:42:19.092Z,98291.08
2019-03-05T07:44:53.998Z,98287.98
2019-03-05T07:47:28.858Z,98276.93
2019-03-05T07:51:01.948Z,98287.20
2019-03-05T07:53:36.844Z,98286.67
2019-03-05T07:56:56.993Z,98293.93
2019-03-05T08:00:18.517Z,98295.52
2019-03-05T08:02:53.468Z,98274.99
2019-03-05T08:05:28.512Z,98280.84
2019-03-05T08:08:57.792Z,98280.84
2019-03-05T08:11:32.852Z,98279.97
2019-03-05T08:14:53.146Z,98277.02
2019-03-05T08:17:28.572Z,98278.67
2019-03-05T08:20:06.453Z,98286.55
2019-03-05T08:22:42.790Z,98286.52
2019-03-05T08:25:17.793Z,98286.80
2019-03-05T08:27:53.135Z,98294.34
2019-03-05T08:30:28.304Z,98283.99
2019-03-05T08:33:03.179Z,98300.28
2019-03-05T08:35:39.079Z,98297.65
2019-03-05T08:38:14.335Z,98308.59
2019-03-05T08:40:49.590Z,98316.48
2019-03-05T08:43:23.546Z,98315.13
2019-03-05T08:45:57.515Z,98302.73
2019-03-05T08:48:32.458Z,98302.73
2019-03-05T08:51:07.611Z,98329.67
2019-03-05T08:53:49.465Z,98329.67
2019-03-05T08:56:18.632Z,98344.63
2019-03-05T08:58:52.558Z,98341.34
2019-03-05T09:01:26.675Z,98340.86
2019-03-05T09:04:01.761Z,98340.86
2019-03-05T09:06:37.588Z,98353.09
2019-03-05T09:09:16.153Z,98351.66
2019-03-05T09:11:52.490Z,98344.89
2019-03-05T09:14:27.553Z,98338.13
2019-03-05T09:17:02.042Z,98354.78
2019-03-05T09:19:37.141Z,98354.78
2019-03-05T09:22:12.143Z,98359.25
2019-03-05T09:24:47.038Z,98353.65
2019-03-05T09:27:21.839Z,98348.39
2019-03-05T09:29:57.017Z,98349.16
2019-03-05T09:32:31.873Z,98345.47
2019-03-05T09:35:08.915Z,98358.94
2019-03-05T09:37:43.835Z,98350.34
2019-03-05T09:40:22.481Z,98331.01
2019-03-05T09:42:58.094Z,98334.02
2019-03-05T09:45:33.066Z,98334.02
2019-03-05T09:48:07.793Z,98339.58
2019-03-05T09:50:42.535Z,98338.97
2019-03-05T09:53:16.415Z,98329.76
2019-03-05T09:55:51.582Z,98329.76
2019-03-05T09:58:26.697Z,98328.61
2019-03-05T10:01:01.518Z,98328.61
2019-03-05T10:03:35.520Z,98335.55
2019-03-05T10:06:12.990Z,98329.11
2019-03-05T10:08:47.693Z,98323.05
2019-03-05T10:11:22.808Z,98320.16
2019-03-05T10:13:57.860Z,98325.93
2019-03-05T10:16:33.139Z,98320.23
2019-03-05T10:19:08.530Z,98303.20
2019-03-05T10:21:46.508Z,98317.00
2019-03-05T10:24:20.093Z,98304.22
2019-03-05T10:26:55.394Z,98304.02
2019-03-05T10:29:30.257Z,98315.06
2019-03-05T10:32:05.415Z,98306.92
2019-03-05T10:34:39.830Z,98315.93
2019-03-05T10:37:18.774Z,98315.93
2019-03-05T10:39:51.121Z,98314.62
2019-03-05T10:42:25.995Z,98314.62
2019-03-05T10:45:01.310Z,98308.12
2019-03-05T10:47:38.484Z,98298.33
2019-03-05T10:50:19.272Z,98298.38
2019-03-05T10:52:54.649Z,98279.02
2019-03-05T10:55:29.066Z,98291.14
2019-03-05T10:58:04.681Z,98300.25
2019-03-05T11:00:43.453Z,98290.00
2019-03-05T11:03:18.033Z,98283.61
2019-03-05T11:05:54.040Z,98283.61
2019-03-05T11:08:29.959Z,98282.23
2019-03-05T11:11:13.468Z,98293.73
2019-03-05T11:13:42.371Z,98284.88
2019-03-05T11:16:18.681Z,98274.09
2019-03-05T11:18:54.260Z,98283.59
2019-03-05T11:21:29.546Z,98292.17
2019-03-05T11:24:05.728Z,98292.80
2019-03-05T11:26:40.562Z,98283.41
2019-03-05T11:29:15.505Z,98269.21
2019-03-05T11:31:50.815Z,98255.63
2019-03-05T11:34:26.039Z,98255.63
2019-03-05T11:37:01.013Z,98263.70
2019-03-05T11:39:37.321Z,98276.30
2019-03-05T11:42:12.326Z,98270.28
2019-03-05T11:44:58.993Z,98265.73
2019-03-05T11:47:25.330Z,98262.39
2019-03-05T11:50:00.635Z,98267.84
2019-03-05T11:52:35.266Z,98270.00
2019-03-05T11:55:12.821Z,98269.86
2019-03-05T11:57:47.798Z,98264.42
2019-03-05T12:00:48.078Z,98265.19
2019-03-05T12:03:24.814Z,98267.80
2019-03-05T12:05:59.831Z,98265.38
2019-03-05T12:08:34.993Z,98261.73
2019-03-05T12:11:10.016Z,98259.35
2019-03-05T12:13:46.114Z,98259.77
2019-03-05T12:16:23.888Z,98266.64
2019-03-05T12:19:00.837Z,98267.27
2019-03-05T12:21:36.619Z,98270.34
2019-03-05T12:24:11.632Z,98270.64
2019-03-05T12:26:46.169Z,98271.19
2019-03-05T12:29:21.857Z,98279.58
2019-03-05T12:31:56.815Z,98257.80
2019-03-05T12:34:32.528Z,98268.69
2019-03-05T12:37:08.037Z,98254.19
2019-03-05T12:39:43.700Z,98254.19
2019-03-05T12:42:19.132Z,98265.34
2019-03-05T12:44:54.137Z,98250.80
2019-03-05T12:47:29.327Z,98247.84
2019-03-05T12:50:06.601Z,98247.45
2019-03-05T12:52:40.754Z,98247.45
2019-03-05T12:55:15.953Z,98248.92
2019-03-05T12:57:51.305Z,98254.48
2019-03-05T13:00:27.033Z,98251.38
2019-03-05T13:03:02.689Z,98247.87
2019-03-05T13:05:37.505Z,98246.80
2019-03-05T13:08:12.280Z,98254.48
2019-03-05T13:10:47.671Z,98250.31
2019-03-05T13:13:25.631Z,98243.60
2019-03-05T13:15:59.484Z,98253.44
2019-03-05T13:18:34.311Z,98249.91
2019-03-05T13:21:08.898Z,98249.91
2019-03-05T13:23:43.382Z,98240.99
2019-03-05T13:26:21.617Z,98267.02
2019-03-05T13:28:55.846Z,98264.08
2019-03-05T13:31:31.984Z,98260.44
2019-03-05T13:34:06.875Z,98277.97
2019-03-05T13:36:42.649Z,98262.78
2019-03-05T13:39:22.182Z,98273.90
2019-03-05T13:41:56.663Z,98281.34
2019-03-05T13:44:35.782Z,98287.13
2019-03-05T13:47:13.311Z,98286.97
2019-03-05T13:50:24.245Z,98299.22
2019-03-05T13:53:40.858Z,98304.39
2019-03-05T13:57:44.684Z,98304.39
2019-03-05T14:00:19.804Z,98307.11
2019-03-05T14:03:19.844Z,98317.89
2019-03-05T14:06:50.681Z,98323.34
2019-03-05T14:09:22.674Z,98325.38
2019-03-05T14:11:57.522Z,98328.82
2019-03-05T14:14:34.515Z,98328.84
2019-03-05T14:17:20.732Z,98320.98
2019-03-05T14:19:55.329Z,98320.98
2019-03-05T14:22:30.071Z,98328.78
2019-03-05T14:25:07.564Z,98329.64
2019-03-05T14:27:42.128Z,98323.80
2019-03-05T14:30:20.987Z,98323.80
2019-03-05T14:33:00.774Z,98325.71
2019-03-05T14:35:35.533Z,98325.67
2019-03-05T14:38:10.130Z,98324.53
2019-03-05T14:40:44.674Z,98324.53
2019-03-05T14:43:18.851Z,98338.00
2019-03-05T14:45:53.851Z,98338.00
2019-03-05T14:48:29.341Z,98345.69
2019-03-05T14:51:04.017Z,98343.20
2019-03-05T14:53:39.218Z,98342.48
2019-03-05T14:56:14.585Z,98347.52
2019-03-05T14:58:48.524Z,98357.32
2019-03-05T15:01:23.118Z,98363.03
2019-03-05T15:03:57.812Z,98363.03
2019-03-05T15:06:32.890Z,98377.59
2019-03-05T15:09:07.673Z,98359.51
2019-03-05T15:11:46.363Z,98366.22
2019-03-05T15:14:21.473Z,98371.09
2019-03-05T15:16:56.338Z,98376.36
2019-03-05T15:19:31.694Z,98378.39
2019-03-05T15:22:08.124Z,98385.36
2019-03-05T15:24:43.188Z,98396.70
2019-03-05T15:27:17.813Z,98396.30
2019-03-05T15:31:03.820Z,98406.84
2019-03-05T15:33:42.522Z,98406.11
2019-03-05T15:36:23.842Z,98402.38
2019-03-05T15:38:53.391Z,98416.86
2019-03-05T15:41:28.139Z,98427.59
2019-03-05T15:44:03.062Z,98432.36
2019-03-05T15:46:37.905Z,98434.32
2019-03-05T15:49:12.840Z,98436.02
2019-03-05T15:51:47.252Z,98428.73
2019-03-05T15:54:22.838Z,98435.27
2019-03-05T15:56:57.685Z,98437.48
2019-03-05T15:59:32.520Z,98438.84
2019-03-05T16:02:06.795Z,98447.91
2019-03-05T16:04:43.728Z,98447.82
2019-03-05T16:07:18.306Z,98448.55
2019-03-05T16:09:53.443Z,98448.55
2019-03-05T16:12:27.955Z,98456.17
2019-03-05T16:15:05.117Z,98459.63
2019-03-05T16:17:39.660Z,98465.19
2019-03-05T16:20:13.862Z,98466.81
2019-03-05T16:22:51.139Z,98468.60
2019-03-05T16:25:25.318Z,98478.31
2019-03-05T16:28:02.338Z,98468.03
2019-03-05T16:31:07.766Z,98474.84
2019-03-05T16:34:09.458Z,98479.72
2019-03-05T16:37:04.408Z,98481.83
2019-03-05T16:40:05.366Z,98483.62
2019-03-05T16:43:07.339Z,98480.77
2019-03-05T16:46:03.323Z,98479.94
2019-03-05T16:48:57.866Z,98475.24
2019-03-05T16:51:45.992Z,98474.10
2019-03-05T16:54:37.140Z,98475.06
2019-03-05T16:57:31.064Z,98473.83
2019-03-05T17:00:22.433Z,98470.53
2019-03-05T17:03:03.016Z,98473.50
2019-03-05T17:06:02.728Z,98473.50
2019-03-05T17:08:48.684Z,98498.02
2019-03-05T17:11:52.101Z,98503.68
2019-03-05T17:14:28.315Z,98514.16
2019-03-05T17:17:03.127Z,98518.06
2019-03-05T17:19:39.272Z,98518.47
2019-03-05T17:22:13.958Z,98518.47
2019-03-05T17:24:49.087Z,98531.52
2019-03-05T17:27:23.688Z,98545.06
2019-03-05T17:29:58.991Z,98539.64
2019-03-05T17:32:33.869Z,98541.48
2019-03-05T17:35:08.675Z,98548.05
2019-03-05T17:37:46.169Z,98547.12
2019-03-05T17:40:22.558Z,98543.33
2019-03-05T17:42:57.315Z,98553.59
2019-03-05T17:45:33.829Z,98553.59
2019-03-05T17:48:08.619Z,98547.61
2019-03-05T17:50:43.489Z,98558.64
2019-03-05T17:53:18.541Z,98561.72
2019-03-05T17:55:53.590Z,98564.08
2019-03-05T17:58:28.473Z,98566.52
2019-03-05T18:01:03.094Z,98579.75
2019-03-05T18:03:39.536Z,98572.56
2019-03-05T18:06:14.350Z,98559.43
2019-03-05T18:08:49.306Z,98569.72
2019-03-05T18:11:25.677Z,98587.46
2019-03-05T18:14:01.006Z,98587.46
2019-03-05T18:16:36.952Z,98596.24
2019-03-05T18:19:12.045Z,98592.05
2019-03-05T18:21:47.417Z,98610.77
2019-03-05T18:24:22.450Z,98614.66
2019-03-05T18:26:57.439Z,98611.78
2019-03-05T18:29:32.313Z,98605.92
2019-03-05T18:32:06.990Z,98605.92
2019-03-05T18:34:41.866Z,98616.08
2019-03-05T18:37:16.597Z,98623.88
2019-03-05T18:39:51.596Z,98619.98
2019-03-05T18:42:26.176Z,98619.80
2019-03-05T18:45:00.888Z,98625.73
2019-03-05T18:47:37.358Z,98631.09
2019-03-05T18:50:17.019Z,98633.95
2019-03-05T18:52:52.316Z,98633.95
2019-03-05T18:55:27.736Z,98635.00
2019-03-05T18:58:02.832Z,98638.59
2019-03-05T19:00:38.033Z,98632.70
2019-03-05T19:03:13.118Z,98642.54
2019-03-05T19:05:48.507Z,98640.33
2019-03-05T19:08:23.685Z,98652.05
2019-03-05T19:10:58.578Z,98652.05
2019-03-05T19:13:32.657Z,98651.11
2019-03-05T19:16:07.566Z,98652.98
2019-03-05T19:18:42.668Z,98656.14
2019-03-05T19:21:17.566Z,98649.47
2019-03-05T19:23:52.611Z,98654.75
2019-03-05T19:26:26.899Z,98660.86
2019-03-05T19:29:01.535Z,98657.13
2019-03-05T19:31:36.750Z,98657.56
2019-03-05T19:34:12.332Z,98657.56
2019-03-05T19:36:47.581Z,98666.66
2019-03-05T19:39:21.632Z,98666.61
2019-03-05T19:41:56.542Z,98673.13
2019-03-05T19:44:31.483Z,98673.49
2019-03-05T19:47:08.921Z,98663.52
2019-03-05T19:49:44.579Z,98663.52
2019-03-05T19:52:19.325Z,98676.45
2019-03-05T19:54:54.037Z,98676.45
2019-03-05T19:57:29.121Z,98676.27
2019-03-05T20:00:04.939Z,98681.09
2019-03-05T20:02:40.479Z,98681.99
2019-03-05T20:05:17.113Z,98666.61
2019-03-05T20:07:52.169Z,98666.61
2019-03-05T20:10:27.345Z,98682.63
2019-03-05T20:13:02.318Z,98680.62
2019-03-05T20:15:39.478Z,98681.94
2019-03-05T20:18:14.752Z,98670.92
2019-03-05T20:20:50.572Z,98670.92
2019-03-05T20:23:25.555Z,98678.95
2019-03-05T20:25:59.670Z,98685.06
2019-03-05T20:28:35.906Z,98685.06
2019-03-05T20:31:12.565Z,98682.35
2019-03-05T20:33:47.945Z,98678.98
2019-03-05T20:36:23.597Z,98679.55
2019-03-05T20:38:58.846Z,98681.20
2019-03-05T20:41:34.456Z,98681.48
2019-03-05T20:44:09.342Z,98678.72
2019-03-05T20:46:44.130Z,98673.80
2019-03-05T20:49:18.914Z,98673.13
2019-03-05T20:51:54.313Z,98677.56
2019-03-05T20:54:29.464Z,98667.57
2019-03-05T20:57:04.451Z,98676.88
2019-03-05T20:59:41.108Z,98676.88
2019-03-05T21:02:16.142Z,98681.24
2019-03-05T21:04:50.898Z,98680.70
2019-03-05T21:07:25.780Z,98682.22
2019-03-05T21:10:00.718Z,98687.59
2019-03-05T21:12:35.530Z,98678.72
2019-03-05T21:15:11.699Z,98685.33
2019-03-05T21:17:48.187Z,98681.94
2019-03-05T21:20:23.615Z,98681.94
2019-03-05T21:22:57.713Z,98678.17
2019-03-05T21:25:32.723Z,98684.05
2019-03-05T21:28:08.111Z,98672.16
2019-03-05T21:30:43.538Z,98665.73
2019-03-05T21:33:18.660Z,98669.82
2019-03-05T21:35:53.684Z,98669.82
2019-03-05T21:38:29.177Z,98672.08
2019-03-05T21:41:04.468Z,98671.80
2019-03-05T21:43:39.736Z,98673.59
2019-03-05T21:46:18.087Z,98667.43
2019-03-05T21:48:53.357Z,98654.23
2019-03-05T21:51:27.593Z,98654.71
2019-03-05T21:54:02.327Z,98646.63
2019-03-05T21:56:41.162Z,98656.39
2019-03-05T21:59:16.584Z,98655.06
2019-03-05T22:01:53.182Z,98658.25
2019-03-05T22:04:28.903Z,98655.39
2019-03-05T22:07:04.185Z,98656.92
2019-03-05T22:09:39.144Z,98660.88
2019-03-05T22:12:16.080Z,98658.73
2019-03-05T22:14:51.336Z,98650.43
2019-03-05T22:17:27.039Z,98658.77
2019-03-05T22:20:03.337Z,98654.60
2019-03-05T22:22:38.554Z,98659.81
2019-03-05T22:25:16.727Z,98654.38
2019-03-05T22:27:53.932Z,98654.38
2019-03-05T22:30:29.586Z,98661.03
2019-03-05T22:33:03.490Z,98658.28
2019-03-05T22:35:38.324Z,98647.42
2019-03-05T22:38:16.135Z,98653.84
2019-03-05T22:40:50.848Z,98649.53
2019-03-05T22:43:27.522Z,98647.80
2019-03-05T22:46:02.756Z,98645.19
2019-03-05T22:48:37.577Z,98645.19
2019-03-05T22:51:13.876Z,98642.62
2019-03-05T22:53:49.533Z,98643.22
2019-03-05T22:56:24.323Z,98644.45
2019-03-05T22:58:59.039Z,98644.45
2019-03-05T23:01:42.679Z,98644.79
2019-03-05T23:04:31.451Z,98640.27
2019-03-05T23:07:07.028Z,98640.27
2019-03-05T23:09:41.888Z,98637.17
2019-03-05T23:12:17.146Z,98641.41
2019-03-05T23:14:53.325Z,98644.56
2019-03-05T23:17:27.503Z,98641.57
2019-03-05T23:20:01.714Z,98648.16
2019-03-05T23:22:37.264Z,98644.78
2019-03-05T23:25:15.517Z,98640.25
2019-03-05T23:27:49.626Z,98637.58
2019-03-05T23:30:23.946Z,98645.22
2019-03-05T23:33:02.565Z,98643.27
2019-03-05T23:35:37.161Z,98629.64
2019-03-05T23:38:11.902Z,98622.37
2019-03-05T23:40:46.843Z,98617.31
2019-03-05T23:43:22.475Z,98611.78
2019-03-05T23:45:57.077Z,98602.37
2019-03-05T23:48:31.790Z,98602.37
2019-03-05T23:51:06.623Z,98602.69
2019-03-05T23:53:41.338Z,98603.88
2019-03-05T23:56:16.312Z,98606.27
2019-03-05T23:58:50.846Z,98609.68
